Terminal Aerodrome Forecast
Issued by NWS

Home | Current Version | Previous Version | Text Only | Print | Product List | Glossary On
Versions: 1 2 3 4 5 6 7 8 9 10 11 12 13 14 15 16 17 18 19 20 21 22 23
633
FTUS43 KJKL 291107 AAB
TAFSME
TAF AMD
KSME 291107Z 2911/3006 VRB03KT P6SM VCSH BKN008 BKN015
     FM291400 00000KT P6SM VCTS BKN015CB
     FM291800 24006KT P6SM BKN030
     FM291900 25006KT P6SM BKN045=

USA.gov is the U.S. government's official web portal to all federal, state and local government web resources and services.